sensor_id;sensor_type;location;lat;lon;timestamp;pressure;altitude;pressure_sealevel;temperature;humidity
58367;BME280;57745;42.524;12.052;2023-06-26T00:02:11;96409.97;;;26.96;33.66
58367;BME280;57745;42.524;12.052;2023-06-26T00:04:37;96401.53;;;27.02;33.61
58367;BME280;57745;42.524;12.052;2023-06-26T00:07:04;96397.47;;;27.03;33.14
58367;BME280;57745;42.524;12.052;2023-06-26T00:09:29;96384.16;;;27.09;33.56
58367;BME280;57745;42.524;12.052;2023-06-26T00:11:55;96386.84;;;26.88;33.42
58367;BME280;57745;42.524;12.052;2023-06-26T00:14:20;96383.75;;;26.78;34.14
58367;BME280;57745;42.524;12.052;2023-06-26T00:16:46;96378.81;;;26.84;33.72
58367;BME280;57745;42.524;12.052;2023-06-26T00:19:12;96380.13;;;26.97;33.61
58367;BME280;57745;42.524;12.052;2023-06-26T00:21:44;96378.41;;;26.80;33.83
58367;BME280;57745;42.524;12.052;2023-06-26T00:24:12;96372.41;;;26.90;33.48
58367;BME280;57745;42.524;12.052;2023-06-26T00:26:37;96371.00;;;26.96;34.02
58367;BME280;57745;42.524;12.052;2023-06-26T00:29:03;96364.72;;;26.82;33.75
58367;BME280;57745;42.524;12.052;2023-06-26T00:31:28;96365.34;;;26.89;33.56
58367;BME280;57745;42.524;12.052;2023-06-26T00:33:54;96367.06;;;26.78;34.13
58367;BME280;57745;42.524;12.052;2023-06-26T00:36:19;96365.47;;;26.70;34.03
58367;BME280;57745;42.524;12.052;2023-06-26T00:38:44;96353.13;;;26.92;34.63
58367;BME280;57745;42.524;12.052;2023-06-26T00:41:10;96348.03;;;26.82;34.77
58367;BME280;57745;42.524;12.052;2023-06-26T00:43:38;96358.50;;;26.76;34.71
58367;BME280;57745;42.524;12.052;2023-06-26T00:46:04;96358.50;;;26.76;35.17
58367;BME280;57745;42.524;12.052;2023-06-26T00:48:30;96359.25;;;26.77;34.50
58367;BME280;57745;42.524;12.052;2023-06-26T00:50:56;96365.03;;;26.92;34.68
58367;BME280;57745;42.524;12.052;2023-06-26T00:53:21;96361.50;;;26.92;34.87
58367;BME280;57745;42.524;12.052;2023-06-26T00:55:47;96364.59;;;26.88;34.83
58367;BME280;57745;42.524;12.052;2023-06-26T00:58:13;96354.66;;;26.79;35.52
58367;BME280;57745;42.524;12.052;2023-06-26T01:00:39;96365.34;;;26.89;35.24
58367;BME280;57745;42.524;12.052;2023-06-26T01:03:04;96362.56;;;27.02;35.35
58367;BME280;57745;42.524;12.052;2023-06-26T01:05:30;96358.72;;;26.65;36.24
58367;BME280;57745;42.524;12.052;2023-06-26T01:07:57;96362.66;;;26.83;35.36
58367;BME280;57745;42.524;12.052;2023-06-26T01:10:23;96353.03;;;26.84;35.82
58367;BME280;57745;42.524;12.052;2023-06-26T01:12:49;96358.72;;;26.78;35.82
58367;BME280;57745;42.524;12.052;2023-06-26T01:15:15;96355.50;;;26.88;35.25
58367;BME280;57745;42.524;12.052;2023-06-26T01:17:40;96355.63;;;26.82;35.46
58367;BME280;57745;42.524;12.052;2023-06-26T01:20:10;96362.56;;;26.75;35.33
58367;BME280;57745;42.524;12.052;2023-06-26T01:22:50;96359.69;;;26.94;35.39
58367;BME280;57745;42.524;12.052;2023-06-26T01:27:56;96350.47;;;26.60;35.84
58367;BME280;57745;42.524;12.052;2023-06-26T01:30:21;96357.53;;;26.87;35.25
58367;BME280;57745;42.524;12.052;2023-06-26T01:32:48;96355.50;;;26.74;35.45
58367;BME280;57745;42.524;12.052;2023-06-26T01:35:15;96361.50;;;26.78;35.33
58367;BME280;57745;42.524;12.052;2023-06-26T01:37:41;96356.91;;;26.68;35.68
58367;BME280;57745;42.524;12.052;2023-06-26T01:40:07;96362.34;;;26.87;35.61
58367;BME280;57745;42.524;12.052;2023-06-26T01:42:33;96356.16;;;26.80;34.99
58367;BME280;57745;42.524;12.052;2023-06-26T01:48:01;96358.50;;;26.63;35.56
58367;BME280;57745;42.524;12.052;2023-06-26T01:50:28;96361.50;;;26.52;35.54
58367;BME280;57745;42.524;12.052;2023-06-26T01:55:42;96353.16;;;26.78;35.56
58367;BME280;57745;42.524;12.052;2023-06-26T01:58:10;96342.13;;;26.73;35.17
58367;BME280;57745;42.524;12.052;2023-06-26T02:00:36;96352.09;;;26.81;35.20
58367;BME280;57745;42.524;12.052;2023-06-26T02:03:02;96350.16;;;26.76;35.12
58367;BME280;57745;42.524;12.052;2023-06-26T02:05:30;96343.00;;;26.68;35.54
58367;BME280;57745;42.524;12.052;2023-06-26T02:07:56;96348.22;;;26.71;35.32
58367;BME280;57745;42.524;12.052;2023-06-26T02:10:21;96356.03;;;26.73;35.36
58367;BME280;57745;42.524;12.052;2023-06-26T02:12:47;96354.88;;;26.55;35.99
58367;BME280;57745;42.524;12.052;2023-06-26T02:15:12;96353.59;;;26.69;35.83
58367;BME280;57745;42.524;12.052;2023-06-26T02:17:37;96360.53;;;26.50;36.05
58367;BME280;57745;42.524;12.052;2023-06-26T02:20:03;96358.06;;;26.72;35.20
58367;BME280;57745;42.524;12.052;2023-06-26T02:22:29;96350.59;;;26.80;35.28
58367;BME280;57745;42.524;12.052;2023-06-26T02:24:54;96352.19;;;26.63;35.92
58367;BME280;57745;42.524;12.052;2023-06-26T02:27:20;96346.94;;;26.46;35.92
58367;BME280;57745;42.524;12.052;2023-06-26T02:29:45;96352.41;;;26.65;36.06
58367;BME280;57745;42.524;12.052;2023-06-26T02:32:11;96358.50;;;26.63;35.96
58367;BME280;57745;42.524;12.052;2023-06-26T02:34:36;96354.00;;;26.47;36.09
58367;BME280;57745;42.524;12.052;2023-06-26T02:37:02;96355.28;;;26.59;36.27
58367;BME280;57745;42.524;12.052;2023-06-26T02:39:27;96351.66;;;26.64;35.70
58367;BME280;57745;42.524;12.052;2023-06-26T02:41:53;96349.94;;;26.61;36.00
58367;BME280;57745;42.524;12.052;2023-06-26T02:44:19;96352.31;;;26.57;36.20
58367;BME280;57745;42.524;12.052;2023-06-26T02:46:44;96354.44;;;26.51;35.62
58367;BME280;57745;42.524;12.052;2023-06-26T02:49:10;96343.31;;;26.51;36.04
58367;BME280;57745;42.524;12.052;2023-06-26T02:51:35;96343.53;;;26.53;36.20
58367;BME280;57745;42.524;12.052;2023-06-26T02:54:01;96349.72;;;26.46;36.19
58367;BME280;57745;42.524;12.052;2023-06-26T02:56:27;96352.09;;;26.55;35.66
58367;BME280;57745;42.524;12.052;2023-06-26T02:58:54;96348.22;;;26.58;35.90
58367;BME280;57745;42.524;12.052;2023-06-26T03:01:20;96350.28;;;26.58;36.18
58367;BME280;57745;42.524;12.052;2023-06-26T03:03:46;96352.50;;;26.59;35.75
58367;BME280;57745;42.524;12.052;2023-06-26T03:06:12;96351.75;;;26.59;36.20
58367;BME280;57745;42.524;12.052;2023-06-26T03:08:38;96356.59;;;26.45;36.31
58367;BME280;57745;42.524;12.052;2023-06-26T03:11:07;96354.75;;;26.61;36.27
58367;BME280;57745;42.524;12.052;2023-06-26T03:13:36;96362.34;;;26.60;36.19
58367;BME280;57745;42.524;12.052;2023-06-26T03:16:02;96354.75;;;26.47;36.36
58367;BME280;57745;42.524;12.052;2023-06-26T03:18:28;96348.88;;;26.38;36.46
58367;BME280;57745;42.524;12.052;2023-06-26T03:20:55;96356.97;;;26.23;37.14
58367;BME280;57745;42.524;12.052;2023-06-26T03:23:21;96355.31;;;26.33;37.07
58367;BME280;57745;42.524;12.052;2023-06-26T03:25:47;96357.66;;;26.42;36.61
58367;BME280;57745;42.524;12.052;2023-06-26T03:28:13;96356.78;;;26.60;36.37
58367;BME280;57745;42.524;12.052;2023-06-26T03:30:39;96360.44;;;26.42;36.25
58367;BME280;57745;42.524;12.052;2023-06-26T03:33:04;96346.94;;;26.46;36.43
58367;BME280;57745;42.524;12.052;2023-06-26T03:35:30;96350.81;;;26.43;36.23
58367;BME280;57745;42.524;12.052;2023-06-26T03:37:57;96343.84;;;26.50;36.18
58367;BME280;57745;42.524;12.052;2023-06-26T03:40:22;96346.53;;;26.42;36.30
58367;BME280;57745;42.524;12.052;2023-06-26T03:42:48;96348.66;;;26.36;36.13
58367;BME280;57745;42.524;12.052;2023-06-26T03:45:13;96345.88;;;26.49;36.17
58367;BME280;57745;42.524;12.052;2023-06-26T03:47:39;96345.66;;;26.47;36.22
58367;BME280;57745;42.524;12.052;2023-06-26T03:50:05;96351.22;;;26.34;36.34
58367;BME280;57745;42.524;12.052;2023-06-26T03:52:30;96349.19;;;26.34;36.29
58367;BME280;57745;42.524;12.052;2023-06-26T03:54:57;96352.09;;;26.42;36.56
58367;BME280;57745;42.524;12.052;2023-06-26T03:57:22;96350.69;;;26.48;36.43
58367;BME280;57745;42.524;12.052;2023-06-26T03:59:48;96355.91;;;26.26;36.79
58367;BME280;57745;42.524;12.052;2023-06-26T04:02:13;96354.44;;;26.38;36.95
58367;BME280;57745;42.524;12.052;2023-06-26T04:04:39;96349.94;;;26.35;37.07
58367;BME280;57745;42.524;12.052;2023-06-26T04:07:04;96357.44;;;26.53;36.69
58367;BME280;57745;42.524;12.052;2023-06-26T04:09:30;96355.63;;;26.29;37.42
58367;BME280;57745;42.524;12.052;2023-06-26T04:11:55;96361.63;;;26.33;37.05
58367;BME280;57745;42.524;12.052;2023-06-26T04:14:21;96363.84;;;26.35;37.25
58367;BME280;57745;42.524;12.052;2023-06-26T04:16:47;96365.34;;;26.36;36.84
58367;BME280;57745;42.524;12.052;2023-06-26T04:19:12;96362.16;;;26.45;37.16
58367;BME280;57745;42.524;12.052;2023-06-26T04:21:38;96360.53;;;26.36;37.32
58367;BME280;57745;42.524;12.052;2023-06-26T04:24:04;96364.50;;;26.28;37.65
58367;BME280;57745;42.524;12.052;2023-06-26T04:26:29;96365.69;;;26.45;36.96
58367;BME280;57745;42.524;12.052;2023-06-26T04:28:55;96372.19;;;26.35;36.95
58367;BME280;57745;42.524;12.052;2023-06-26T04:31:20;96359.97;;;26.25;37.47
58367;BME280;57745;42.524;12.052;2023-06-26T04:33:47;96367.91;;;26.34;37.24
58367;BME280;57745;42.524;12.052;2023-06-26T04:36:16;96373.06;;;26.56;36.92
58367;BME280;57745;42.524;12.052;2023-06-26T04:38:42;96377.38;;;26.25;37.78
58367;BME280;57745;42.524;12.052;2023-06-26T04:41:07;96372.56;;;26.26;37.48
58367;BME280;57745;42.524;12.052;2023-06-26T04:43:33;96371.72;;;26.18;37.54
58367;BME280;57745;42.524;12.052;2023-06-26T04:45:58;96375.59;;;26.28;37.73
58367;BME280;57745;42.524;12.052;2023-06-26T04:48:24;96376.81;;;26.32;37.80
58367;BME280;57745;42.524;12.052;2023-06-26T04:50:49;96376.25;;;26.47;37.07
58367;BME280;57745;42.524;12.052;2023-06-26T04:53:19;96373.16;;;26.37;37.50
58367;BME280;57745;42.524;12.052;2023-06-26T04:55:45;96368.25;;;26.57;37.67
58367;BME280;57745;42.524;12.052;2023-06-26T04:58:11;96362.75;;;26.25;38.03
58367;BME280;57745;42.524;12.052;2023-06-26T05:00:36;96361.72;;;26.41;37.63
58367;BME280;57745;42.524;12.052;2023-06-26T05:03:02;96366.75;;;26.42;37.70
58367;BME280;57745;42.524;12.052;2023-06-26T05:05:28;96363.44;;;26.31;38.04
58367;BME280;57745;42.524;12.052;2023-06-26T05:07:54;96370.06;;;26.28;38.15
58367;BME280;57745;42.524;12.052;2023-06-26T05:10:20;96356.38;;;26.43;37.51
58367;BME280;57745;42.524;12.052;2023-06-26T05:12:46;96369.63;;;26.50;37.95
58367;BME280;57745;42.524;12.052;2023-06-26T05:15:11;96362.34;;;26.34;38.13
58367;BME280;57745;42.524;12.052;2023-06-26T05:17:37;96361.94;;;26.30;38.41
58367;BME280;57745;42.524;12.052;2023-06-26T05:20:02;96367.59;;;26.64;37.62
58367;BME280;57745;42.524;12.052;2023-06-26T05:22:29;96377.09;;;26.29;38.21
58367;BME280;57745;42.524;12.052;2023-06-26T05:24:55;96368.78;;;26.42;38.34
58367;BME280;57745;42.524;12.052;2023-06-26T05:27:24;96365.13;;;26.47;38.21
58367;BME280;57745;42.524;12.052;2023-06-26T05:29:50;96369.19;;;26.46;37.93
58367;BME280;57745;42.524;12.052;2023-06-26T05:32:16;96374.56;;;26.57;37.56
58367;BME280;57745;42.524;12.052;2023-06-26T05:34:48;96377.34;;;26.44;37.95
58367;BME280;57745;42.524;12.052;2023-06-26T05:37:21;96374.97;;;26.48;38.40
58367;BME280;57745;42.524;12.052;2023-06-26T05:39:47;96373.28;;;26.45;38.29
58367;BME280;57745;42.524;12.052;2023-06-26T05:42:13;96382.56;;;26.47;38.12
58367;BME280;57745;42.524;12.052;2023-06-26T05:44:38;96383.66;;;26.58;38.54
58367;BME280;57745;42.524;12.052;2023-06-26T05:47:04;96384.81;;;26.49;38.66
58367;BME280;57745;42.524;12.052;2023-06-26T05:49:30;96391.44;;;26.46;38.73
58367;BME280;57745;42.524;12.052;2023-06-26T05:51:55;96391.44;;;26.59;38.65
58367;BME280;57745;42.524;12.052;2023-06-26T05:54:22;96397.97;;;26.62;38.85
58367;BME280;57745;42.524;12.052;2023-06-26T05:56:47;96396.16;;;26.64;38.73
58367;BME280;57745;42.524;12.052;2023-06-26T05:59:15;96390.38;;;26.49;39.23
58367;BME280;57745;42.524;12.052;2023-06-26T06:01:41;96391.78;;;26.69;38.66
58367;BME280;57745;42.524;12.052;2023-06-26T06:04:07;96391.25;;;26.57;39.15
58367;BME280;57745;42.524;12.052;2023-06-26T06:06:32;96393.38;;;26.51;38.93
58367;BME280;57745;42.524;12.052;2023-06-26T06:08:58;96389.00;;;26.69;38.82
58367;BME280;57745;42.524;12.052;2023-06-26T06:11:23;96398.94;;;26.51;38.96
58367;BME280;57745;42.524;12.052;2023-06-26T06:13:48;96394.56;;;26.42;39.10
58367;BME280;57745;42.524;12.052;2023-06-26T06:16:14;96400.00;;;26.74;38.56
58367;BME280;57745;42.524;12.052;2023-06-26T06:18:40;96406.97;;;26.68;38.93
58367;BME280;57745;42.524;12.052;2023-06-26T06:21:05;96406.13;;;26.73;38.52
58367;BME280;57745;42.524;12.052;2023-06-26T06:23:30;96404.44;;;26.70;38.67
58367;BME280;57745;42.524;12.052;2023-06-26T06:25:56;96409.78;;;26.81;38.86
58367;BME280;57745;42.524;12.052;2023-06-26T06:28:21;96401.31;;;26.73;38.54
58367;BME280;57745;42.524;12.052;2023-06-26T06:30:47;96398.94;;;26.91;39.03
58367;BME280;57745;42.524;12.052;2023-06-26T06:33:13;96413.19;;;26.87;38.76
58367;BME280;57745;42.524;12.052;2023-06-26T06:35:39;96410.94;;;26.72;39.20
58367;BME280;57745;42.524;12.052;2023-06-26T06:38:05;96406.00;;;26.65;39.07
58367;BME280;57745;42.524;12.052;2023-06-26T06:40:30;96411.56;;;26.92;39.10
58367;BME280;57745;42.524;12.052;2023-06-26T06:42:56;96408.06;;;26.78;39.09
58367;BME280;57745;42.524;12.052;2023-06-26T06:45:21;96404.50;;;26.77;39.10
58367;BME280;57745;42.524;12.052;2023-06-26T06:47:46;96403.09;;;26.84;38.90
58367;BME280;57745;42.524;12.052;2023-06-26T06:50:12;96409.03;;;26.94;38.03
58367;BME280;57745;42.524;12.052;2023-06-26T06:52:39;96398.94;;;26.77;38.62
58367;BME280;57745;42.524;12.052;2023-06-26T06:55:06;96401.63;;;26.70;39.05
58367;BME280;57745;42.524;12.052;2023-06-26T06:57:35;96409.88;;;27.02;38.18
58367;BME280;57745;42.524;12.052;2023-06-26T07:00:10;96408.16;;;26.99;38.68
58367;BME280;57745;42.524;12.052;2023-06-26T07:02:39;96411.81;;;26.94;38.76
58367;BME280;57745;42.524;12.052;2023-06-26T07:05:05;96417.16;;;26.92;38.36
58367;BME280;57745;42.524;12.052;2023-06-26T07:07:32;96407.09;;;27.02;38.50
58367;BME280;57745;42.524;12.052;2023-06-26T07:10:06;96413.41;;;26.89;38.43
58367;BME280;57745;42.524;12.052;2023-06-26T07:12:33;96415.00;;;26.98;37.95
58367;BME280;57745;42.524;12.052;2023-06-26T07:15:00;96408.81;;;26.78;38.41
58367;BME280;57745;42.524;12.052;2023-06-26T07:17:26;96420.25;;;26.88;38.44
58367;BME280;57745;42.524;12.052;2023-06-26T07:19:51;96425.94;;;26.96;38.26
58367;BME280;57745;42.524;12.052;2023-06-26T07:22:17;96420.34;;;27.22;37.78
58367;BME280;57745;42.524;12.052;2023-06-26T07:24:45;96424.41;;;27.08;38.35
58367;BME280;57745;42.524;12.052;2023-06-26T07:27:11;96414.59;;;27.07;38.08
58367;BME280;57745;42.524;12.052;2023-06-26T07:29:36;96410.50;;;27.08;38.45
58367;BME280;57745;42.524;12.052;2023-06-26T07:32:02;96418.97;;;27.02;38.54
58367;BME280;57745;42.524;12.052;2023-06-26T07:34:27;96414.69;;;27.14;38.39
58367;BME280;57745;42.524;12.052;2023-06-26T07:36:53;96426.13;;;27.11;38.40
58367;BME280;57745;42.524;12.052;2023-06-26T07:39:19;96410.50;;;27.08;38.45
58367;BME280;57745;42.524;12.052;2023-06-26T07:41:44;96421.63;;;27.21;38.20
58367;BME280;57745;42.524;12.052;2023-06-26T07:44:10;96414.75;;;27.22;38.57
58367;BME280;57745;42.524;12.052;2023-06-26T07:46:35;96425.06;;;27.27;38.44
58367;BME280;57745;42.524;12.052;2023-06-26T07:49:00;96425.16;;;27.22;39.12
58367;BME280;57745;42.524;12.052;2023-06-26T07:51:26;96428.03;;;27.42;38.15
58367;BME280;57745;42.524;12.052;2023-06-26T07:53:51;96429.13;;;27.26;38.83
58367;BME280;57745;42.524;12.052;2023-06-26T07:56:17;96429.56;;;27.30;38.89
58367;BME280;57745;42.524;12.052;2023-06-26T07:58:42;96428.44;;;27.33;38.90
58367;BME280;57745;42.524;12.052;2023-06-26T08:01:08;96438.66;;;27.31;38.58
58367;BME280;57745;42.524;12.052;2023-06-26T08:03:33;96442.38;;;27.33;38.40
58367;BME280;57745;42.524;12.052;2023-06-26T08:05:59;96436.38;;;27.42;38.05
58367;BME280;57745;42.524;12.052;2023-06-26T08:08:25;96435.84;;;27.44;38.11
58367;BME280;57745;42.524;12.052;2023-06-26T08:10:50;96433.38;;;27.40;39.08
58367;BME280;57745;42.524;12.052;2023-06-26T08:13:15;96430.16;;;27.36;39.01
58367;BME280;57745;42.524;12.052;2023-06-26T08:15:41;96433.25;;;27.46;38.44
58367;BME280;57745;42.524;12.052;2023-06-26T08:18:07;96440.97;;;27.40;38.92
58367;BME280;57745;42.524;12.052;2023-06-26T08:20:32;96431.03;;;27.44;38.84
58367;BME280;57745;42.524;12.052;2023-06-26T08:22:57;96430.44;;;27.59;38.55
58367;BME280;57745;42.524;12.052;2023-06-26T08:25:23;96432.50;;;27.45;38.77
58367;BME280;57745;42.524;12.052;2023-06-26T08:27:48;96433.34;;;27.53;38.60
58367;BME280;57745;42.524;12.052;2023-06-26T08:30:14;96437.00;;;27.48;38.69
58367;BME280;57745;42.524;12.052;2023-06-26T08:32:39;96430.34;;;27.51;38.73
58367;BME280;57745;42.524;12.052;2023-06-26T08:35:06;96434.34;;;27.56;38.97
58367;BME280;57745;42.524;12.052;2023-06-26T08:37:31;96443.31;;;27.49;38.66
58367;BME280;57745;42.524;12.052;2023-06-26T08:39:59;96442.69;;;27.56;39.10
58367;BME280;57745;42.524;12.052;2023-06-26T08:42:25;96437.31;;;27.58;38.94
58367;BME280;57745;42.524;12.052;2023-06-26T08:44:50;96434.63;;;27.52;39.24
58367;BME280;57745;42.524;12.052;2023-06-26T08:47:16;96439.25;;;27.50;39.00
58367;BME280;57745;42.524;12.052;2023-06-26T08:49:51;96435.91;;;27.65;39.12
58367;BME280;57745;42.524;12.052;2023-06-26T08:52:29;96434.19;;;27.62;39.18
58367;BME280;57745;42.524;12.052;2023-06-26T08:54:58;96432.69;;;27.61;39.33
58367;BME280;57745;42.524;12.052;2023-06-26T08:57:25;96428.03;;;27.76;39.25
58367;BME280;57745;42.524;12.052;2023-06-26T08:59:52;96438.28;;;27.61;39.42
58367;BME280;57745;42.524;12.052;2023-06-26T09:02:18;96431.63;;;27.64;39.26
58367;BME280;57745;42.524;12.052;2023-06-26T09:04:47;96440.94;;;27.66;39.75
58367;BME280;57745;42.524;12.052;2023-06-26T09:07:13;96435.59;;;27.55;40.23
58367;BME280;57745;42.524;12.052;2023-06-26T09:09:38;96433.53;;;27.69;39.87
58367;BME280;57745;42.524;12.052;2023-06-26T09:12:04;96425.72;;;27.67;39.60
58367;BME280;57745;42.524;12.052;2023-06-26T09:14:30;96431.63;;;27.64;39.51
58367;BME280;57745;42.524;12.052;2023-06-26T09:16:55;96433.13;;;27.65;39.86
58367;BME280;57745;42.524;12.052;2023-06-26T09:19:21;96428.03;;;27.76;40.04
58367;BME280;57745;42.524;12.052;2023-06-26T09:21:49;96414.31;;;27.78;39.17
58367;BME280;57745;42.524;12.052;2023-06-26T09:24:15;96429.25;;;27.68;39.18
58367;BME280;57745;42.524;12.052;2023-06-26T09:26:41;96411.44;;;27.71;39.32
58367;BME280;57745;42.524;12.052;2023-06-26T09:29:08;96412.72;;;27.70;38.79
58367;BME280;57745;42.524;12.052;2023-06-26T09:31:38;96405.69;;;27.69;38.89
58367;BME280;57745;42.524;12.052;2023-06-26T09:34:04;96399.00;;;27.72;39.06
58367;BME280;57745;42.524;12.052;2023-06-26T09:36:30;96398.78;;;27.70;38.96
58367;BME280;57745;42.524;12.052;2023-06-26T09:38:59;96402.81;;;27.82;38.86
58367;BME280;57745;42.524;12.052;2023-06-26T09:41:25;96406.16;;;27.80;38.69
58367;BME280;57745;42.524;12.052;2023-06-26T09:43:50;96414.22;;;27.71;39.16
58367;BME280;57745;42.524;12.052;2023-06-26T09:46:17;96399.84;;;27.80;39.02
58367;BME280;57745;42.524;12.052;2023-06-26T09:48:43;96406.09;;;27.73;38.80
58367;BME280;57745;42.524;12.052;2023-06-26T09:51:09;96395.41;;;27.84;39.16
58367;BME280;57745;42.524;12.052;2023-06-26T09:53:35;96407.78;;;27.76;38.92
58367;BME280;57745;42.524;12.052;2023-06-26T09:56:07;96399.44;;;27.76;38.54
58367;BME280;57745;42.524;12.052;2023-06-26T09:58:32;96409.22;;;27.90;38.59
58367;BME280;57745;42.524;12.052;2023-06-26T10:00:58;96419.31;;;27.93;38.24
58367;BME280;57745;42.524;12.052;2023-06-26T10:03:23;96412.97;;;27.93;38.22
58367;BME280;57745;42.524;12.052;2023-06-26T10:05:49;96418.00;;;27.94;38.36
58367;BME280;57745;42.524;12.052;2023-06-26T10:08:16;96424.47;;;27.89;38.34
58367;BME280;57745;42.524;12.052;2023-06-26T10:10:43;96421.34;;;27.93;38.41
58367;BME280;57745;42.524;12.052;2023-06-26T10:13:15;96427.25;;;27.89;38.11
58367;BME280;57745;42.524;12.052;2023-06-26T10:15:44;96421.13;;;27.91;38.34
58367;BME280;57745;42.524;12.052;2023-06-26T10:18:11;96431.31;;;27.88;38.13
58367;BME280;57745;42.524;12.052;2023-06-26T10:20:39;96439.00;;;27.95;38.29
58367;BME280;57745;42.524;12.052;2023-06-26T10:23:06;96428.94;;;27.92;38.40
58367;BME280;57745;42.524;12.052;2023-06-26T10:25:31;96429.56;;;27.98;38.55
58367;BME280;57745;42.524;12.052;2023-06-26T10:28:00;96429.75;;;28.00;38.12
58367;BME280;57745;42.524;12.052;2023-06-26T10:30:33;96427.66;;;27.93;38.32
58367;BME280;57745;42.524;12.052;2023-06-26T10:33:00;96431.25;;;28.01;38.15
58367;BME280;57745;42.524;12.052;2023-06-26T10:35:27;96434.91;;;27.96;37.85
58367;BME280;57745;42.524;12.052;2023-06-26T10:38:00;96427.59;;;28.06;37.58
58367;BME280;57745;42.524;12.052;2023-06-26T10:40:28;96431.69;;;28.05;37.92
58367;BME280;57745;42.524;12.052;2023-06-26T10:43:07;96435.22;;;28.06;37.51
58367;BME280;57745;42.524;12.052;2023-06-26T10:45:35;96435.13;;;27.98;37.69
58367;BME280;57745;42.524;12.052;2023-06-26T10:48:01;96434.47;;;28.05;37.65
58367;BME280;57745;42.524;12.052;2023-06-26T10:50:28;96429.28;;;28.09;37.79
58367;BME280;57745;42.524;12.052;2023-06-26T10:56:02;96424.66;;;28.12;37.41
58367;BME280;57745;42.524;12.052;2023-06-26T11:03:39;96420.50;;;28.18;36.51
58367;BME280;57745;42.524;12.052;2023-06-26T11:08:51;96415.09;;;28.20;36.74
58367;BME280;57745;42.524;12.052;2023-06-26T11:11:21;96422.16;;;28.21;36.98
58367;BME280;57745;42.524;12.052;2023-06-26T11:13:47;96431.69;;;28.26;37.28
58367;BME280;57745;42.524;12.052;2023-06-26T11:16:14;96431.94;;;28.15;36.80
58367;BME280;57745;42.524;12.052;2023-06-26T11:18:44;96422.28;;;28.16;36.71
58367;BME280;57745;42.524;12.052;2023-06-26T11:21:11;96419.03;;;28.25;36.85
58367;BME280;57745;42.524;12.052;2023-06-26T11:23:39;96413.06;;;28.21;36.26
58367;BME280;57745;42.524;12.052;2023-06-26T11:26:20;96412.19;;;28.26;36.16
58367;BME280;57745;42.524;12.052;2023-06-26T11:28:51;96414.63;;;28.30;36.31
58367;BME280;57745;42.524;12.052;2023-06-26T11:31:27;96414.63;;;28.30;36.50
58367;BME280;57745;42.524;12.052;2023-06-26T11:33:54;96409.22;;;28.32;36.47
58367;BME280;57745;42.524;12.052;2023-06-26T11:36:23;96401.06;;;28.34;36.43
58367;BME280;57745;42.524;12.052;2023-06-26T11:38:54;96399.78;;;28.35;36.71
58367;BME280;57745;42.524;12.052;2023-06-26T11:41:20;96404.06;;;28.36;36.30
58367;BME280;57745;42.524;12.052;2023-06-26T11:43:47;96406.09;;;28.35;35.85
58367;BME280;57745;42.524;12.052;2023-06-26T11:46:16;96393.31;;;28.40;35.97
58367;BME280;57745;42.524;12.052;2023-06-26T11:48:41;96406.84;;;28.36;36.25
58367;BME280;57745;42.524;12.052;2023-06-26T11:51:07;96411.56;;;28.41;36.41
58367;BME280;57745;42.524;12.052;2023-06-26T11:53:39;96413.84;;;28.50;36.13
58367;BME280;57745;42.524;12.052;2023-06-26T11:56:13;96400.22;;;28.46;35.75
58367;BME280;57745;42.524;12.052;2023-06-26T11:59:04;96400.97;;;28.47;35.69
58367;BME280;57745;42.524;12.052;2023-06-26T12:01:36;96403.38;;;28.43;35.67
58367;BME280;57745;42.524;12.052;2023-06-26T12:04:07;96404.72;;;28.49;35.53
58367;BME280;57745;42.524;12.052;2023-06-26T12:06:37;96407.66;;;28.44;35.47
58367;BME280;57745;42.524;12.052;2023-06-26T12:09:05;96405.81;;;28.46;35.78
58367;BME280;57745;42.524;12.052;2023-06-26T12:11:33;96415.28;;;28.43;35.89
58367;BME280;57745;42.524;12.052;2023-06-26T12:13:59;96404.13;;;28.43;35.43
58367;BME280;57745;42.524;12.052;2023-06-26T12:16:27;96405.28;;;28.48;35.20
58367;BME280;57745;42.524;12.052;2023-06-26T12:18:58;96406.09;;;28.56;35.24
58367;BME280;57745;42.524;12.052;2023-06-26T12:24:12;96405.47;;;28.50;35.54
58367;BME280;57745;42.524;12.052;2023-06-26T12:26:41;96410.81;;;28.40;35.95
58367;BME280;57745;42.524;12.052;2023-06-26T12:29:13;96399.34;;;28.51;35.42
58367;BME280;57745;42.524;12.052;2023-06-26T12:31:43;96406.22;;;28.50;34.88
58367;BME280;57745;42.524;12.052;2023-06-26T12:34:13;96405.44;;;28.42;35.45
58367;BME280;57745;42.524;12.052;2023-06-26T12:36:43;96398.19;;;28.47;34.99
58367;BME280;57745;42.524;12.052;2023-06-26T12:39:13;96396.34;;;28.49;35.19
58367;BME280;57745;42.524;12.052;2023-06-26T12:44:17;96396.25;;;28.63;34.86
58367;BME280;57745;42.524;12.052;2023-06-26T12:46:43;96396.97;;;28.55;35.15
58367;BME280;57745;42.524;12.052;2023-06-26T12:49:08;96393.44;;;28.55;35.29
58367;BME280;57745;42.524;12.052;2023-06-26T12:51:33;96401.59;;;28.53;35.08
58367;BME280;57745;42.524;12.052;2023-06-26T12:53:59;96399.59;;;28.61;35.13
58367;BME280;57745;42.524;12.052;2023-06-26T12:56:24;96392.69;;;28.54;34.71
58367;BME280;57745;42.524;12.052;2023-06-26T12:58:50;96389.94;;;28.62;34.69
58367;BME280;57745;42.524;12.052;2023-06-26T13:01:15;96391.63;;;28.65;34.07
58367;BME280;57745;42.524;12.052;2023-06-26T13:03:45;96389.34;;;28.56;33.87
58367;BME280;57745;42.524;12.052;2023-06-26T13:06:10;96390.13;;;28.64;34.45
58367;BME280;57745;42.524;12.052;2023-06-26T13:08:37;96395.50;;;28.62;34.33
58367;BME280;57745;42.524;12.052;2023-06-26T13:11:02;96397.00;;;28.63;33.91
58367;BME280;57745;42.524;12.052;2023-06-26T13:13:28;96396.22;;;28.55;34.27